Time,TemperatureF,DewpointF,PressureIn,WindDirection,WindDirectionDegrees,WindSpeedMPH,WindSpeedGustMPH,Humidity,HourlyPrecipIn,Conditions,Clouds,dailyrainin,SoftwareType,DateUTC
2013-01-15 00:12:00,28.0,2.0,-100.00,North,-999,-999.0,-999.0,32,-99.99,,,0.00,,2013-01-15 08:12:00,
2013-01-15 00:22:00,28.0,2.0,-100.00,North,-999,-999.0,-999.0,32,-99.99,,,0.00,,2013-01-15 08:22:00,
2013-01-15 00:32:00,28.0,2.0,-100.00,North,-999,-999.0,-999.0,32,-99.99,,,0.00,,2013-01-15 08:32:00,
2013-01-15 00:43:00,-999.0,-99.9,-100.00,North,-999,1.0,-999.0,-999,-99.99,,,-99.99,,2013-01-15 08:43:00,
2013-01-15 01:02:00,-999.0,-99.9,-100.00,North,5,0.0,-999.0,-999,-99.99,,,-99.99,,2013-01-15 09:02:00,
2013-01-15 01:12:00,-999.0,-99.9,-100.00,North,-999,1.0,-999.0,-999,-99.99,,,-99.99,,2013-01-15 09:12:00,
2013-01-15 01:22:00,-999.0,-99.9,-100.00,North,-999,1.0,-999.0,-999,-99.99,,,-99.99,,2013-01-15 09:22:00,
2013-01-15 01:33:00,-999.0,-99.9,-100.00,North,-999,1.0,-999.0,-999,-99.99,,,-99.99,,2013-01-15 09:33:00,
2013-01-15 02:12:00,-999.0,-99.9,-100.00,North,-999,1.0,-999.0,-999,-99.99,,,-99.99,,2013-01-15 10:12:00,
2013-01-15 02:22:00,-999.0,-99.9,-100.00,North,-999,1.0,-999.0,-999,-99.99,,,-99.99,,2013-01-15 10:22:00,
2013-01-15 02:33:00,-999.0,-99.9,-100.00,North,-999,1.0,-999.0,-999,-99.99,,,-99.99,,2013-01-15 10:33:00,
2013-01-15 02:42:00,26.0,-99.9,-100.00,North,-999,-999.0,-999.0,-999,-99.99,,,-99.99,,2013-01-15 10:42:00,
2013-01-15 02:53:00,26.0,-99.9,-100.00,North,-999,-999.0,-999.0,-999,-99.99,,,-99.99,,2013-01-15 10:53:00,
2013-01-15 03:03:00,26.0,-99.9,-100.00,North,-999,-999.0,-999.0,-999,-99.99,,,-99.99,,2013-01-15 11:03:00,
2013-01-15 03:12:00,26.0,2.0,-100.00,North,-999,-999.0,-999.0,34,-99.99,,,-99.99,,2013-01-15 11:12:00,
2013-01-15 03:22:00,26.0,2.0,-100.00,North,-999,-999.0,-999.0,34,-99.99,,,-99.99,,2013-01-15 11:22:00,
2013-01-15 03:32:00,26.0,2.0,-100.00,North,-999,-999.0,-999.0,34,-99.99,,,-99.99,,2013-01-15 11:32:00,
2013-01-15 03:42:00,26.0,2.0,-100.00,North,-999,-999.0,-999.0,34,-99.99,,,-99.99,,2013-01-15 11:42:00,
2013-01-15 06:02:00,24.0,3.0,-100.00,North,-999,-999.0,-999.0,40,-99.99,,,-99.99,,2013-01-15 14:02:00,
2013-01-15 06:12:00,24.0,3.0,-100.00,North,-999,-999.0,-999.0,40,-99.99,,,-99.99,,2013-01-15 14:12:00,
2013-01-15 06:23:00,27.0,3.0,-100.00,North,-999,-999.0,-999.0,35,-99.99,,,-99.99,,2013-01-15 14:23:00,
2013-01-15 06:33:00,27.0,3.0,-100.00,North,-999,-999.0,-999.0,35,-99.99,,,-99.99,,2013-01-15 14:33:00,
2013-01-15 06:43:00,27.0,3.0,-100.00,North,-999,-999.0,-999.0,35,-99.99,,,-99.99,,2013-01-15 14:43:00,
2013-01-15 06:53:00,27.0,3.0,-100.00,North,-999,-999.0,-999.0,35,-99.99,,,-99.99,,2013-01-15 14:53:00,
2013-01-15 08:12:00,32.0,-99.9,-100.00,North,-999,-999.0,-999.0,-999,-99.99,,,-99.99,,2013-01-15 16:12:00,
2013-01-15 08:23:00,32.0,-99.9,-100.00,North,-999,-999.0,-999.0,-999,-99.99,,,-99.99,,2013-01-15 16:23:00,
2013-01-15 08:33:00,34.0,5.0,-100.00,North,-999,-999.0,-999.0,28,-99.99,,,-99.99,,2013-01-15 16:33:00,
2013-01-15 08:42:00,34.0,5.0,-100.00,North,-999,-999.0,-999.0,28,-99.99,,,-99.99,,2013-01-15 16:42:00,
2013-01-15 08:53:00,39.0,-99.9,-100.00,North,-999,-999.0,-999.0,-999,-99.99,,,-99.99,,2013-01-15 16:53:00,
2013-01-15 08:54:00,-999.0,-99.9,-100.00,ENE,73,0.0,-999.0,-999,-99.99,,,-99.99,,2013-01-15 16:54:00,
2013-01-15 09:04:00,36.0,-99.9,-100.00,North,-999,-999.0,-999.0,-999,-99.99,,,-99.99,,2013-01-15 17:04:00,
2013-01-15 09:13:00,39.0,-99.9,-100.00,North,-999,-999.0,-999.0,-999,-99.99,,,-99.99,,2013-01-15 17:13:00,
2013-01-15 09:23:00,39.0,-99.9,-100.00,North,-999,-999.0,-999.0,-999,-99.99,,,-99.99,,2013-01-15 17:23:00,
2013-01-15 09:33:00,39.0,-99.9,-100.00,North,-999,-999.0,-999.0,-999,-99.99,,,-99.99,,2013-01-15 17:33:00,
2013-01-15 09:43:00,39.0,-99.9,-100.00,North,-999,-999.0,-999.0,-999,-99.99,,,-99.99,,2013-01-15 17:43:00,
2013-01-15 09:53:00,39.0,-99.9,-100.00,North,-999,-999.0,-999.0,-999,-99.99,,,-99.99,,2013-01-15 17:53:00,
2013-01-15 10:03:00,42.0,4.0,-100.00,North,-999,-999.0,-999.0,20,-99.99,,,-99.99,,2013-01-15 18:03:00,
2013-01-15 10:13:00,39.0,-99.9,-100.00,North,-999,-999.0,-999.0,-999,-99.99,,,-99.99,,2013-01-15 18:13:00,
2013-01-15 10:24:00,39.0,-99.9,-100.00,North,-999,-999.0,-999.0,-999,-99.99,,,-99.99,,2013-01-15 18:24:00,
2013-01-15 10:34:00,39.0,-99.9,-100.00,North,-999,-999.0,-999.0,-999,-99.99,,,-99.99,,2013-01-15 18:34:00,
2013-01-15 10:43:00,39.0,-99.9,-100.00,North,-999,-999.0,-999.0,-999,-99.99,,,-99.99,,2013-01-15 18:43:00,
2013-01-15 11:13:00,42.0,-99.9,-100.00,North,-999,-999.0,-999.0,-999,-99.99,,,-99.99,,2013-01-15 19:13:00,
2013-01-15 11:23:00,42.0,-99.9,-100.00,North,-999,-999.0,-999.0,-999,-99.99,,,-99.99,,2013-01-15 19:23:00,
2013-01-15 11:33:00,42.0,-99.9,-100.00,North,-999,-999.0,-999.0,-999,-99.99,,,-99.99,,2013-01-15 19:33:00,
2013-01-15 11:43:00,42.0,-99.9,-100.00,North,-999,-999.0,-999.0,-999,-99.99,,,-99.99,,2013-01-15 19:43:00,
2013-01-15 12:12:00,42.0,7.0,-100.00,North,-999,-999.0,-999.0,22,-99.99,,,0.00,,2013-01-15 20:12:00,
2013-01-15 12:23:00,44.0,-99.9,-100.00,North,-999,-999.0,-999.0,-999,-99.99,,,-99.99,,2013-01-15 20:23:00,
2013-01-15 12:34:00,44.0,-99.9,-100.00,North,-999,-999.0,-999.0,-999,-99.99,,,-99.99,,2013-01-15 20:34:00,
2013-01-15 12:44:00,44.0,-99.9,-100.00,North,-999,-999.0,-999.0,-999,-99.99,,,-99.99,,2013-01-15 20:44:00,
2013-01-15 12:53:00,44.0,-99.9,-100.00,North,-999,-999.0,-999.0,-999,-99.99,,,-99.99,,2013-01-15 20:53:00,
2013-01-15 13:03:00,46.0,-99.9,-100.00,North,-999,-999.0,-999.0,-999,-99.99,,,-99.99,,2013-01-15 21:03:00,
2013-01-15 13:13:00,46.0,-99.9,-100.00,North,-999,-999.0,-999.0,-999,-99.99,,,-99.99,,2013-01-15 21:13:00,
2013-01-15 13:24:00,46.0,-99.9,-100.00,North,-999,-999.0,-999.0,-999,-99.99,,,-99.99,,2013-01-15 21:24:00,
2013-01-15 13:34:00,-999.0,-99.9,-100.00,NNE,16,0.0,-999.0,-999,-99.99,,,-99.99,,2013-01-15 21:34:00,
2013-01-15 13:43:00,-999.0,-99.9,-100.00,NNE,33,3.0,-999.0,-999,-99.99,,,-99.99,,2013-01-15 21:43:00,
2013-01-15 13:53:00,-999.0,-99.9,-100.00,NNE,33,3.0,-999.0,-999,-99.99,,,-99.99,,2013-01-15 21:53:00,
2013-01-15 14:03:00,-999.0,-99.9,-100.00,North,0,2.0,-999.0,-999,-99.99,,,-99.99,,2013-01-15 22:03:00,
2013-01-15 14:13:00,-999.0,-99.9,-100.00,North,-999,1.0,-999.0,-999,-99.99,,,-99.99,,2013-01-15 22:13:00,
2013-01-15 14:23:00,-999.0,-99.9,-100.00,NNE,22,2.0,-999.0,-999,-99.99,,,-99.99,,2013-01-15 22:23:00,
2013-01-15 14:33:00,-999.0,-99.9,-100.00,NNE,22,2.0,-999.0,-999,-99.99,,,-99.99,,2013-01-15 22:33:00,
2013-01-15 14:43:00,-999.0,-99.9,-100.00,NNE,22,2.0,-999.0,-999,-99.99,,,-99.99,,2013-01-15 22:43:00,
2013-01-15 14:53:00,-999.0,-99.9,-100.00,NE,50,1.0,-999.0,-999,-99.99,,,-99.99,,2013-01-15 22:53:00,
2013-01-15 15:03:00,-999.0,-99.9,-100.00,NE,50,1.0,-999.0,-999,-99.99,,,-99.99,,2013-01-15 23:03:00,
2013-01-15 15:12:00,49.0,11.0,-100.00,North,-999,1.0,-999.0,21,-99.99,,,-99.99,,2013-01-15 23:12:00,
2013-01-15 15:22:00,49.0,11.0,-100.00,North,-999,1.0,-999.0,21,-99.99,,,-99.99,,2013-01-15 23:22:00,
2013-01-15 15:32:00,49.0,11.0,-100.00,North,-999,1.0,-999.0,21,-99.99,,,-99.99,,2013-01-15 23:32:00,
2013-01-15 15:42:00,49.0,11.0,-100.00,North,-999,1.0,-999.0,21,-99.99,,,-99.99,,2013-01-15 23:42:00,
2013-01-15 16:23:00,-999.0,-99.9,-100.00,East,90,1.0,-999.0,-999,-99.99,,,-99.99,,2013-01-16 00:23:00,
2013-01-15 16:33:00,-999.0,-99.9,-100.00,East,90,1.0,-999.0,-999,-99.99,,,-99.99,,2013-01-16 00:33:00,
2013-01-15 16:43:00,46.0,-99.9,-100.00,North,-999,-999.0,-999.0,-999,-99.99,,,-99.99,,2013-01-16 00:43:00,
2013-01-15 16:53:00,46.0,-99.9,-100.00,North,-999,-999.0,-999.0,-999,-99.99,,,-99.99,,2013-01-16 00:53:00,
2013-01-15 17:03:00,46.0,-99.9,-100.00,North,-999,-999.0,-999.0,-999,-99.99,,,-99.99,,2013-01-16 01:03:00,
2013-01-15 18:12:00,44.0,12.0,-100.00,North,-999,1.0,-999.0,27,-99.99,,,-99.99,,2013-01-16 02:12:00,
2013-01-15 18:22:00,44.0,12.0,-100.00,North,-999,1.0,-999.0,27,-99.99,,,-99.99,,2013-01-16 02:22:00,
2013-01-15 18:32:00,44.0,12.0,-100.00,North,-999,1.0,-999.0,27,-99.99,,,-99.99,,2013-01-16 02:32:00,
2013-01-15 18:43:00,-999.0,-99.9,-100.00,NNE,28,0.0,-999.0,-999,-99.99,,,-99.99,,2013-01-16 02:43:00,
2013-01-15 18:53:00,-999.0,-99.9,-100.00,NNE,28,0.0,-999.0,-999,-99.99,,,-99.99,,2013-01-16 02:53:00,
2013-01-15 19:03:00,-999.0,-99.9,-100.00,NNE,28,0.0,-999.0,-999,-99.99,,,-99.99,,2013-01-16 03:03:00,
2013-01-15 19:12:00,-999.0,-99.9,-100.00,North,-999,1.0,-999.0,-999,-99.99,,,-99.99,,2013-01-16 03:12:00,
2013-01-15 19:23:00,-999.0,-99.9,-100.00,North,-999,1.0,-999.0,-999,-99.99,,,-99.99,,2013-01-16 03:23:00,
2013-01-15 19:33:00,41.0,-99.9,-100.00,North,-999,-999.0,-999.0,-999,-99.99,,,-99.99,,2013-01-16 03:33:00,
2013-01-15 19:43:00,41.0,-99.9,-100.00,North,-999,-999.0,-999.0,-999,-99.99,,,-99.99,,2013-01-16 03:43:00,
2013-01-15 19:53:00,41.0,-99.9,-100.00,North,-999,-999.0,-999.0,-999,-99.99,,,-99.99,,2013-01-16 03:53:00,
2013-01-15 20:02:00,41.0,-99.9,-100.00,North,-999,-999.0,-999.0,-999,-99.99,,,-99.99,,2013-01-16 04:02:00,
2013-01-15 21:12:00,40.0,13.0,-100.00,North,-999,-999.0,-999.0,32,-99.99,,,-99.99,,2013-01-16 05:12:00,
2013-01-15 21:22:00,40.0,13.0,-100.00,North,-999,-999.0,-999.0,32,-99.99,,,-99.99,,2013-01-16 05:22:00,
2013-01-15 21:32:00,40.0,13.0,-100.00,North,-999,-999.0,-999.0,32,-99.99,,,-99.99,,2013-01-16 05:32:00,
2013-01-15 21:42:00,40.0,13.0,-100.00,North,-999,-999.0,-999.0,32,-99.99,,,-99.99,,2013-01-16 05:42:00,
2013-01-15 22:12:00,38.0,-99.9,-100.00,North,-999,-999.0,-999.0,-999,-99.99,,,-99.99,,2013-01-16 06:12:00,
2013-01-15 22:22:00,38.0,-99.9,-100.00,North,-999,-999.0,-999.0,-999,-99.99,,,-99.99,,2013-01-16 06:22:00,
2013-01-15 22:33:00,38.0,-99.9,-100.00,North,-999,-999.0,-999.0,-999,-99.99,,,-99.99,,2013-01-16 06:33:00,
2013-01-15 22:43:00,38.0,-99.9,-100.00,North,-999,-999.0,-999.0,-999,-99.99,,,-99.99,,2013-01-16 06:43:00,